To NAV CANADA Home Page Login to a new session Search on AWWS site Feedback and Comments Disclaimer Vers la page française équivalente Tips FAQ What's new on the site To the Forecasts and Observations / NOTAM section To "File a Flight Plan" website Publications and other links Update of the User's profile FIC Telephone Numbers My Weather Data Folder Route Weather Data Regional Weather Data Local Weather Data To the Forecasts and Observations / NOTAM section
Request Generated 05/30/2015 at 00:00:57 UTC . Weather information available at that time is displayed.

METAR/TAF

LYNN LAKE/MB    (show WxCam)

METAR CYYL 292300Z AUTO 36007KT 330V060 9SM OVC040 04/M05 A3040 RMK
SLP318=
METAR CYYL 292200Z AUTO 31006KT 290V360 9SM OVC040 03/M05 A3041 RMK
SLP320=
METAR CYYL 292100Z AUTO 35007KT 310V020 9SM BKN038 OVC047 03/M06
A3041 RMK SLP323=

TAF CYYL 291838Z 2919/3007 36010KT P6SM BKN040
FM300100 VRB03KT P6SM FEW040
RMK FCST BASED ON AUTO OBS. NXT FCST BY 300100Z=
Your time UTC time
Weather data provided by Environment Canada and NAV CANADA